Waynesburg, Ohio
Current Conditions -  °F | °C
As of 2:53 PM on Wednesday 17 Dec 2014 (Local Time) from KPHD Reporting Station
Overcast Overcast  
Wind Chill: -5°   Ceiling: 2400
Heat Index:   Visibility: 10mi
Dew Point: -4°   Wind: 15mph
Humidity: 70%   Direction: 270°W
Pressure: 30.12"   Gusts: 22mph
Location:  40.67°N, 81.26°W
Report Text: KPHD 171953Z AUTO 27013G19KT 10SM OVC024 01/M04 A3012 RMK AO2 SLP207 T00061044
Loading
Personal Weather Stations






























Interactive Weather Map New forecast layout! Learn more

10-Day Weather Forecast

Advertisements
Track Severe Weather on mobile